createdAt,value
2018-12-11T00:03:30.196Z,3.08
2018-12-11T00:14:33.696Z,3.08
2018-12-11T00:25:34.368Z,3.07
2018-12-11T00:36:36.269Z,3.07
2018-12-11T00:47:37.462Z,3.07
2018-12-11T00:58:39.894Z,3.06
2018-12-11T01:09:34.955Z,3.06
2018-12-11T01:20:30.565Z,3.06
2018-12-11T01:31:27.101Z,3.05
2018-12-11T01:42:30.224Z,3.05
2018-12-11T01:53:26.244Z,3.05
2018-12-11T02:04:30.404Z,3.06
2018-12-11T02:15:33.774Z,3.06
2018-12-11T02:26:35.619Z,3.06
2018-12-11T02:37:40.052Z,3.06
2018-12-11T02:48:17.294Z,3.05
2018-12-11T02:59:17.730Z,3.05
2018-12-11T03:10:13.744Z,3.05
2018-12-11T03:21:15.444Z,3.04
2018-12-11T03:32:17.831Z,3.04
2018-12-11T03:43:20.562Z,3.04
2018-12-11T03:54:23.455Z,3.03
2018-12-11T04:05:26.571Z,3.03
2018-12-11T04:16:29.869Z,3.03
2018-12-11T04:27:31.989Z,3.03
2018-12-11T04:38:29.098Z,3.02
2018-12-11T04:49:27.145Z,3.02
2018-12-11T05:00:24.225Z,3.02
2018-12-11T05:11:21.598Z,3.01
2018-12-11T05:22:16.472Z,3.01
2018-12-11T05:33:10.578Z,3.00
2018-12-11T05:44:13.912Z,3.00
2018-12-11T05:55:17.043Z,3.00
2018-12-11T06:06:18.625Z,3.00
2018-12-11T06:17:16.652Z,2.99
2018-12-11T06:28:17.857Z,2.99
2018-12-11T06:39:19.064Z,2.99
2018-12-11T06:50:20.293Z,2.99
2018-12-11T07:01:21.366Z,2.99
2018-12-11T07:12:23.988Z,3.00
2018-12-11T07:23:26.037Z,3.00
2018-12-11T07:34:31.051Z,3.01
2018-12-11T07:45:36.683Z,3.02
2018-12-11T07:56:41.219Z,3.04
2018-12-11T08:07:47.286Z,3.08
2018-12-11T08:18:53.207Z,3.09
2018-12-11T08:29:58.904Z,3.11
2018-12-11T08:41:03.131Z,3.14
2018-12-11T08:52:02.199Z,3.16
2018-12-11T09:03:05.741Z,3.16
2018-12-11T09:14:09.779Z,3.18
2018-12-11T09:25:14.435Z,3.18
2018-12-11T09:36:17.524Z,3.18
2018-12-11T09:47:20.344Z,3.19
2018-12-11T09:58:17.554Z,3.20
2018-12-11T10:09:20.868Z,3.20
2018-12-11T10:20:24.074Z,3.22
2018-12-11T10:31:27.599Z,3.22
2018-12-11T10:42:30.443Z,3.23
2018-12-11T10:53:34.685Z,3.36
2018-12-11T11:04:37.103Z,3.33
2018-12-11T11:15:36.393Z,3.36
2018-12-11T11:26:38.834Z,3.37
2018-12-11T11:37:33.976Z,3.38
2018-12-11T11:48:34.079Z,3.40
2018-12-11T11:59:34.829Z,3.42
2018-12-11T12:10:35.118Z,3.40
2018-12-11T12:21:36.058Z,3.38
2018-12-11T12:32:38.989Z,3.39
2018-12-11T12:43:40.164Z,3.39
2018-12-11T12:54:41.266Z,3.36
2018-12-11T13:05:41.895Z,3.36
2018-12-11T13:16:34.558Z,3.37
2018-12-11T13:27:35.559Z,3.37
2018-12-11T13:38:36.646Z,3.37
2018-12-11T13:49:37.319Z,3.37
2018-12-11T14:00:36.933Z,3.36
2018-12-11T14:11:34.834Z,3.34
2018-12-11T14:22:36.208Z,3.34
2018-12-11T14:33:36.395Z,3.34
2018-12-11T14:44:39.308Z,3.33
2018-12-11T14:55:40.601Z,3.32
2018-12-11T15:06:42.685Z,3.31
2018-12-11T15:17:45.078Z,3.30
2018-12-11T15:28:46.772Z,3.30
2018-12-11T15:39:50.027Z,3.29
2018-12-11T15:50:49.100Z,3.29
2018-12-11T16:01:50.778Z,3.29
2018-12-11T16:12:51.666Z,3.28
2018-12-11T16:23:51.604Z,3.28
2018-12-11T16:34:52.915Z,3.28
2018-12-11T16:45:54.675Z,3.27
2018-12-11T16:56:55.289Z,3.27
2018-12-11T17:07:55.645Z,3.26
2018-12-11T17:18:56.171Z,3.26
2018-12-11T17:29:59.552Z,3.26
2018-12-11T17:41:00.125Z,3.26
2018-12-11T17:52:00.152Z,3.25
2018-12-11T18:02:38.304Z,3.25
2018-12-11T18:13:35.489Z,3.24
2018-12-11T18:24:37.817Z,3.24
2018-12-11T18:35:37.084Z,3.23
2018-12-11T18:46:36.106Z,3.23
2018-12-11T18:57:37.194Z,3.22
2018-12-11T19:08:33.487Z,3.22
2018-12-11T19:19:30.977Z,3.22
2018-12-11T19:30:33.501Z,3.21
2018-12-11T19:41:34.806Z,3.21
2018-12-11T19:52:39.765Z,3.21
2018-12-11T20:03:40.425Z,3.20
2018-12-11T20:14:40.662Z,3.19
2018-12-11T20:25:42.430Z,3.19
2018-12-11T20:36:45.116Z,3.19
2018-12-11T20:47:47.878Z,3.18
2018-12-11T20:58:47.622Z,3.18
2018-12-11T21:09:47.146Z,3.18
2018-12-11T21:20:45.510Z,3.17
2018-12-11T21:31:44.723Z,3.17
2018-12-11T21:42:21.811Z,3.16
2018-12-11T21:53:16.287Z,3.16
2018-12-11T22:03:52.627Z,3.15
2018-12-11T22:14:52.371Z,3.15
2018-12-11T22:25:55.170Z,3.15
2018-12-11T22:36:57.211Z,3.15
2018-12-11T22:47:55.211Z,3.14
2018-12-11T22:58:55.441Z,3.14
2018-12-11T23:09:57.030Z,3.15
2018-12-11T23:21:00.119Z,3.15
2018-12-11T23:31:37.353Z,3.14
2018-12-11T23:42:40.961Z,3.15
2018-12-11T23:53:44.047Z,3.14
